Time;durP1;ratioP1;P1;durP2;ratioP2;P2;SDS_P1;SDS_P2;PMS_P1;PMS_P2;Temp;Humidity;BMP_temperature;BMP_pressure;BME280_temperature;BME280_humidity;BME280_pressure;Samples;Min_cycle;Max_cycle;Signal;HPM_P1;HPM_P2
2023/06/30 00:03:15;;;;;;;3.33;1.95;;;;;;;20.59;100.00;97946.53;15268647;19;20033;-51
2023/06/30 00:08:40;;;;;;;2.90;1.95;;;;;;;20.61;100.00;97939.75;15264212;19;20026;-50
2023/06/30 00:14:04;;;;;;;2.13;1.73;;;;;;;20.63;100.00;97931.31;15267715;19;20029;-52
2023/06/30 00:19:32;;;;;;;2.13;1.75;;;;;;;20.64;100.00;97933.78;15265549;19;20014;-49
2023/06/30 00:24:58;;;;;;;1.95;1.70;;;;;;;20.63;100.00;97929.41;15265010;19;20490;-50
2023/06/30 00:30:23;;;;;;;3.42;2.05;;;;;;;20.66;100.00;97916.31;15281196;19;20025;-47
2023/06/30 00:35:50;;;;;;;2.70;2.05;;;;;;;20.66;100.00;97914.41;15281007;19;20018;-52
2023/06/30 00:41:15;;;;;;;4.13;2.60;;;;;;;20.66;100.00;97910.81;15283548;19;20541;-50
2023/06/30 00:46:41;;;;;;;5.03;2.70;;;;;;;20.59;100.00;97903.59;15277619;19;20010;-48
2023/06/30 00:52:10;;;;;;;4.30;2.50;;;;;;;20.55;100.00;97896.91;15275971;19;20027;-50
2023/06/30 00:57:34;;;;;;;5.32;2.70;;;;;;;20.50;100.00;97896.81;15276974;19;20621;-51
2023/06/30 01:03:06;;;;;;;3.97;2.90;;;;;;;20.47;100.00;97886.34;15280808;19;20026;-53
2023/06/30 01:08:38;;;;;;;3.90;2.90;;;;;;;20.44;100.00;97886.81;15277556;19;20019;-56
2023/06/30 01:14:07;;;;;;;3.30;2.80;;;;;;;20.41;100.00;97879.94;15280406;19;20483;-46
2023/06/30 01:19:35;;;;;;;5.75;3.08;;;;;;;20.29;100.00;97882.66;15283974;19;20010;-48
2023/06/30 01:25:11;;;;;;;3.15;2.63;;;;;;;20.17;100.00;97885.38;15273618;19;20038;-49
2023/06/30 01:30:36;;;;;;;4.22;2.60;;;;;;;20.11;100.00;97880.84;15278641;19;20707;-47
2023/06/30 01:36:01;;;;;;;3.53;2.30;;;;;;;20.03;100.00;97873.00;15278959;19;20021;-51
2023/06/30 01:41:29;;;;;;;2.63;2.20;;;;;;;19.95;100.00;97882.38;15278845;19;20495;-49
2023/06/30 01:46:54;;;;;;;4.30;2.20;;;;;;;19.83;100.00;97876.03;15279033;19;20014;-50
2023/06/30 01:52:18;;;;;;;3.70;2.40;;;;;;;19.73;100.00;97873.03;15278027;19;20014;-48
2023/06/30 01:57:46;;;;;;;3.35;2.25;;;;;;;19.73;100.00;97878.50;15269928;19;20483;-49
2023/06/30 02:03:10;;;;;;;3.47;2.30;;;;;;;19.71;100.00;97876.84;15275756;19;20014;-51
2023/06/30 02:08:35;;;;;;;3.03;2.17;;;;;;;19.74;100.00;97874.72;15275053;19;20038;-46
2023/06/30 02:14:02;;;;;;;2.33;2.10;;;;;;;19.74;100.00;97880.19;15273059;19;20371;-50
2023/06/30 02:19:27;;;;;;;3.35;2.20;;;;;;;19.73;100.00;97883.97;15278051;19;20045;-47
2023/06/30 02:24:53;;;;;;;3.25;2.13;;;;;;;19.61;100.00;97884.78;15273722;19;20042;-49
2023/06/30 02:30:21;;;;;;;3.70;2.13;;;;;;;19.56;100.00;97885.47;15272838;19;20523;-49
2023/06/30 02:35:48;;;;;;;5.43;2.25;;;;;;;19.53;100.00;97885.13;15274790;19;20021;-46
2023/06/30 02:41:12;;;;;;;2.08;1.88;;;;;;;19.55;100.00;97883.81;15275033;19;20014;-49
2023/06/30 02:46:40;;;;;;;3.38;2.40;;;;;;;19.53;100.00;97887.84;15274657;19;20022;-51
2023/06/30 02:52:08;;;;;;;3.13;2.20;;;;;;;19.38;100.00;97889.09;15271149;19;20433;-53
2023/06/30 02:57:35;;;;;;;3.50;2.55;;;;;;;19.27;100.00;97892.63;15269484;19;20014;-47
2023/06/30 03:03:04;;;;;;;4.28;2.72;;;;;;;19.20;100.00;97895.44;15268758;19;20010;-51
2023/06/30 03:08:30;;;;;;;3.83;2.63;;;;;;;19.16;100.00;97898.84;15268510;19;20014;-49
2023/06/30 03:13:55;;;;;;;3.47;2.58;;;;;;;19.11;100.00;97898.72;15271052;19;20034;-49
2023/06/30 03:19:29;;;;;;;4.47;2.60;;;;;;;19.09;100.00;97886.13;15271427;19;20010;-52
2023/06/30 03:24:56;;;;;;;3.15;2.70;;;;;;;19.12;100.00;97879.38;15267218;19;20100;-52
2023/06/30 03:30:22;;;;;;;3.70;2.63;;;;;;;19.13;100.00;97893.84;15272399;19;20015;-49
2023/06/30 03:35:49;;;;;;;2.40;2.20;;;;;;;19.15;100.00;97894.47;15268313;19;20097;-49
2023/06/30 03:41:14;;;;;;;2.75;2.30;;;;;;;19.12;100.00;97889.44;15272824;19;20018;-49
2023/06/30 03:46:38;;;;;;;3.85;2.30;;;;;;;19.11;100.00;97880.44;15271001;19;20333;-53
2023/06/30 03:52:11;;;;;;;3.30;2.30;;;;;;;19.12;100.00;97873.06;15271521;19;20014;-48
2023/06/30 03:57:36;;;;;;;5.43;2.60;;;;;;;19.05;100.00;97874.00;15262330;19;20476;-49
2023/06/30 04:03:02;;;;;;;5.15;2.53;;;;;;;19.06;100.00;97869.38;15267100;19;20014;-49
2023/06/30 04:08:29;;;;;;;3.28;2.22;;;;;;;19.08;100.00;97872.69;15263801;19;20018;-48
2023/06/30 04:13:56;;;;;;;2.85;2.50;;;;;;;19.04;100.00;97864.13;15270773;19;20077;-49
2023/06/30 04:19:21;;;;;;;4.40;2.90;;;;;;;19.04;100.00;97855.94;15271924;19;20026;-50
2023/06/30 04:24:49;;;;;;;3.60;2.85;;;;;;;19.06;100.00;97856.56;15266127;19;20025;-49
2023/06/30 04:30:15;;;;;;;4.28;2.53;;;;;;;19.12;100.00;97857.53;15270196;19;20022;-49
2023/06/30 04:35:44;;;;;;;2.85;2.50;;;;;;;19.12;100.00;97851.22;15261361;19;20014;-51
2023/06/30 04:41:11;;;;;;;2.55;2.35;;;;;;;19.18;100.00;97853.03;15270261;19;20007;-46
2023/06/30 04:46:37;;;;;;;3.65;2.63;;;;;;;19.21;100.00;97849.88;15268063;19;20022;-47
2023/06/30 04:52:02;;;;;;;2.97;2.65;;;;;;;19.27;100.00;97842.63;15267750;19;20035;-48
2023/06/30 04:57:29;;;;;;;4.13;2.70;;;;;;;19.33;100.00;97847.16;15265139;19;20007;-48
2023/06/30 05:02:56;;;;;;;3.08;2.70;;;;;;;19.38;100.00;97859.06;15263705;19;20752;-50
2023/06/30 05:08:21;;;;;;;6.18;3.10;;;;;;;19.41;100.00;97865.94;15261965;19;20021;-48
2023/06/30 05:13:49;;;;;;;4.72;3.30;;;;;;;19.52;100.00;97867.88;15268866;19;20360;-48
2023/06/30 05:19:15;;;;;;;4.40;2.95;;;;;;;19.51;100.00;97876.31;15283400;19;20057;-49
2023/06/30 05:24:40;;;;;;;6.60;2.45;;;;;;;19.51;100.00;97881.78;15278508;19;20746;-48
2023/06/30 05:30:07;;;;;;;3.03;2.63;;;;;;;19.52;100.00;97880.72;15279224;19;20015;-47
2023/06/30 05:35:31;;;;;;;3.50;2.60;;;;;;;19.55;100.00;97874.78;15280533;19;20010;-48
2023/06/30 05:40:56;;;;;;;3.45;2.70;;;;;;;19.65;100.00;97872.31;15282897;19;20018;-52
2023/06/30 05:46:24;;;;;;;3.45;2.70;;;;;;;19.76;100.00;97872.59;15278388;19;20031;-48
2023/06/30 05:51:49;;;;;;;3.80;2.88;;;;;;;19.85;100.00;97869.28;15283845;19;20353;-48
2023/06/30 05:57:13;;;;;;;5.32;2.92;;;;;;;19.98;100.00;97859.22;15279333;19;20022;-49
2023/06/30 06:02:41;;;;;;;3.65;2.88;;;;;;;20.08;100.00;97861.34;15280285;19;20032;-49
2023/06/30 06:08:07;;;;;;;6.20;3.03;;;;;;;20.19;100.00;97866.00;15280271;19;20028;-51
2023/06/30 06:13:42;;;;;;;3.33;2.80;;;;;;;20.29;100.00;97859.94;15281238;19;20025;-46
2023/06/30 06:19:09;;;;;;;4.50;3.35;;;;;;;20.44;100.00;97859.44;15284609;19;20026;-51
2023/06/30 06:24:34;;;;;;;5.20;3.00;;;;;;;20.55;100.00;97855.06;15281141;19;20022;-49
2023/06/30 06:29:58;;;;;;;3.53;3.22;;;;;;;20.59;100.00;97853.47;15275006;19;20478;-48
2023/06/30 06:35:26;;;;;;;3.67;3.03;;;;;;;20.65;100.00;97849.78;15281581;19;20024;-50
2023/06/30 06:40:51;;;;;;;3.88;2.90;;;;;;;20.80;100.00;97843.84;15281426;19;20015;-50
2023/06/30 06:46:17;;;;;;;3.50;2.80;;;;;;;20.91;100.00;97850.38;15275362;19;20014;-53
2023/06/30 06:51:44;;;;;;;3.95;2.80;;;;;;;21.04;100.00;97851.97;15276542;19;20034;-51
2023/06/30 06:57:09;;;;;;;4.40;3.00;;;;;;;21.14;100.00;97843.97;15276081;19;20025;-49
2023/06/30 07:02:33;;;;;;;3.85;2.60;;;;;;;21.24;100.00;97857.84;15275873;19;20014;-50
2023/06/30 07:08:01;;;;;;;3.10;2.80;;;;;;;21.40;100.00;97848.00;15277271;19;20706;-47
2023/06/30 07:13:27;;;;;;;3.28;2.90;;;;;;;21.46;100.00;97856.34;15276509;19;20010;-51
2023/06/30 07:18:51;;;;;;;4.30;2.92;;;;;;;21.55;100.00;97855.69;15268646;19;20479;-50
2023/06/30 07:24:18;;;;;;;3.95;2.90;;;;;;;21.74;100.00;97846.44;15272468;19;20011;-52
2023/06/30 07:29:43;;;;;;;4.65;3.00;;;;;;;21.80;100.00;97846.28;15267900;19;20423;-49
2023/06/30 07:35:08;;;;;;;3.70;3.15;;;;;;;22.04;100.00;97837.03;15275630;19;20032;-52
2023/06/30 07:40:44;;;;;;;4.10;2.83;;;;;;;22.22;100.00;97833.19;15277429;19;20017;-51
2023/06/30 07:46:14;;;;;;;3.50;2.53;;;;;;;22.40;100.00;97832.09;15272597;19;20026;-51
2023/06/30 07:51:41;;;;;;;3.42;2.50;;;;;;;22.46;100.00;97820.97;15282055;19;20038;-51
2023/06/30 07:57:09;;;;;;;4.30;2.50;;;;;;;22.38;100.00;97826.88;15271255;19;20037;-49
2023/06/30 08:02:33;;;;;;;3.60;2.60;;;;;;;22.21;100.00;97835.13;15278278;19;20460;-54
2023/06/30 08:07:59;;;;;;;3.25;2.58;;;;;;;22.37;100.00;97844.41;15272012;19;20018;-49
2023/06/30 08:13:27;;;;;;;4.13;2.35;;;;;;;22.54;100.00;97836.16;15272382;19;20368;-50
2023/06/30 08:18:53;;;;;;;4.47;2.65;;;;;;;22.78;100.00;97844.16;15271600;19;20022;-51
2023/06/30 08:24:17;;;;;;;2.63;2.40;;;;;;;22.85;100.00;97828.31;15272199;19;20054;-49
2023/06/30 08:29:45;;;;;;;2.85;2.50;;;;;;;22.88;100.00;97835.19;15269310;19;20375;-50
2023/06/30 08:35:10;;;;;;;2.80;2.40;;;;;;;22.84;100.00;97829.41;15268705;19;20019;-74
2023/06/30 08:40:37;;;;;;;3.05;2.40;;;;;;;22.96;100.00;97823.78;15273476;19;20476;-74
2023/06/30 08:46:05;;;;;;;3.13;2.40;;;;;;;23.18;100.00;97815.50;15269908;19;20026;-74
2023/06/30 08:51:31;;;;;;;2.30;2.03;;;;;;;23.36;100.00;97814.34;15291422;19;20469;-75
2023/06/30 08:56:56;;;;;;;3.67;2.50;;;;;;;23.40;100.00;97806.44;15283839;19;20445;-74
2023/06/30 09:02:25;;;;;;;3.00;2.33;;;;;;;23.46;100.00;97816.38;15287485;19;20010;-74
2023/06/30 09:07:55;;;;;;;2.60;2.22;;;;;;;23.67;100.00;97800.03;15284821;19;20014;-75
2023/06/30 09:13:22;;;;;;;3.80;2.30;;;;;;;23.81;100.00;97800.44;15285293;19;20030;-74
2023/06/30 09:18:49;;;;;;;3.35;2.33;;;;;;;23.92;100.00;97796.69;15285628;19;20018;-74
2023/06/30 09:24:14;;;;;;;3.00;2.58;;;;;;;24.07;100.00;97797.88;15288875;19;20288;-74
2023/06/30 09:29:41;;;;;;;2.85;2.10;;;;;;;24.25;100.00;97791.97;15285597;19;20015;-74
2023/06/30 09:35:16;;;;;;;2.95;2.30;;;;;;;24.34;100.00;97780.44;15279718;19;20018;-74
2023/06/30 09:40:42;;;;;;;4.93;2.67;;;;;;;24.28;100.00;97783.19;15279634;19;20753;-74
2023/06/30 09:46:07;;;;;;;3.53;2.40;;;;;;;24.31;100.00;97771.63;15279311;19;20023;-74
2023/06/30 09:51:34;;;;;;;4.22;2.35;;;;;;;24.09;100.00;97782.78;15281808;19;20516;-73
2023/06/30 09:57:00;;;;;;;4.85;2.42;;;;;;;23.83;100.00;97787.25;15280382;19;20488;-74
2023/06/30 10:02:25;;;;;;;4.38;2.65;;;;;;;23.46;100.00;97797.13;15285890;19;20017;-73
2023/06/30 10:07:52;;;;;;;6.10;2.95;;;;;;;22.77;100.00;97802.13;15282349;19;20014;-73
2023/06/30 10:13:18;;;;;;;8.88;3.55;;;;;;;22.38;100.00;97796.69;15280447;19;20019;-76
2023/06/30 10:18:48;;;;;;;8.20;3.83;;;;;;;22.10;100.00;97800.41;15283195;19;20035;-73
2023/06/30 10:24:17;;;;;;;8.07;3.95;;;;;;;21.89;100.00;97800.06;15285315;19;20025;-74
2023/06/30 10:29:42;;;;;;;6.20;3.90;;;;;;;21.68;100.00;97849.09;15281715;19;20374;-75
2023/06/30 10:35:08;;;;;;;6.15;4.15;;;;;;;21.40;100.00;97858.16;15281557;19;20348;-73
2023/06/30 10:40:36;;;;;;;5.13;3.55;;;;;;;21.11;100.00;97860.06;15281183;19;20014;-74
2023/06/30 10:46:15;;;;;;;29.95;5.80;;;;;;;20.39;100.00;97887.53;15284510;19;20082;-74
2023/06/30 10:51:41;;;;;;;12.43;6.35;;;;;;;20.20;100.00;97867.66;15276411;19;20018;-74
2023/06/30 10:57:19;;;;;;;6.93;5.25;;;;;;;19.94;100.00;97908.06;15279502;19;20034;-75
2023/06/30 11:02:50;;;;;;;37.00;7.82;;;;;;;19.65;100.00;97958.91;15280710;19;20018;-75
2023/06/30 11:08:30;;;;;;;15.73;10.25;;;;;;;19.34;100.00;97980.78;15276223;19;20018;-76
2023/06/30 11:14:09;;;;;;;14.35;10.45;;;;;;;19.30;100.00;98009.59;15286734;19;20023;-75
2023/06/30 11:19:34;;;;;;;14.70;11.68;;;;;;;19.19;100.00;97999.44;15309732;19;20020;-74
2023/06/30 11:24:59;;;;;;;19.35;15.73;;;;;;;19.09;100.00;98010.88;15338593;19;20014;-75
2023/06/30 11:30:27;;;;;;;22.52;15.57;;;;;;;18.99;100.00;98038.72;15273908;19;20082;-75
2023/06/30 11:35:59;;;;;;;24.63;17.92;;;;;;;18.93;100.00;98036.84;15279932;19;20016;-76
2023/06/30 11:41:27;;;;;;;29.45;20.05;;;;;;;18.89;100.00;98060.19;15274968;19;20026;-75
2023/06/30 11:46:56;;;;;;;23.13;18.92;;;;;;;18.85;100.00;98075.34;15272852;19;20409;-75
2023/06/30 11:52:21;;;;;;;26.83;21.35;;;;;;;18.84;100.00;98068.22;15279148;19;20033;-76
2023/06/30 11:57:47;;;;;;;23.33;19.77;;;;;;;18.81;100.00;98079.56;15272092;19;20532;-74
2023/06/30 12:03:14;;;;;;;23.38;19.55;;;;;;;18.75;100.00;98054.88;14764342;19;10000563;-76
2023/06/30 12:08:39;;;;;;;26.77;19.35;;;;;;;18.63;100.00;98024.72;15273874;19;20485;-75
2023/06/30 12:14:04;;;;;;;61.35;34.30;;;;;;;18.45;100.00;98022.78;15274638;19;20086;-76
2023/06/30 12:19:31;;;;;;;61.22;37.00;;;;;;;18.18;100.00;98027.59;15272372;19;20018;-76
2023/06/30 12:25:03;;;;;;;81.85;43.30;;;;;;;18.12;100.00;98053.84;15272416;19;20042;-75
2023/06/30 12:30:30;;;;;;;66.72;39.08;;;;;;;17.96;100.00;98057.91;15272679;19;20018;-75
2023/06/30 12:36:05;;;;;;;66.43;37.33;;;;;;;17.92;100.00;98083.91;15267623;19;20022;-76
2023/06/30 12:41:30;;;;;;;56.40;33.65;;;;;;;17.89;100.00;98108.03;15270069;19;20360;-75
2023/06/30 12:46:54;;;;;;;48.17;30.35;;;;;;;17.84;100.00;98106.78;15273602;19;21414;-76
2023/06/30 12:52:21;;;;;;;29.20;20.02;;;;;;;17.71;100.00;98095.94;15270981;19;20833;-76
2023/06/30 12:57:48;;;;;;;27.23;19.35;;;;;;;17.54;100.00;98085.53;15273563;19;20038;-75
2023/06/30 13:03:15;;;;;;;27.42;18.42;;;;;;;17.48;100.00;98097.28;15272360;19;20021;-76
2023/06/30 13:08:42;;;;;;;23.48;16.48;;;;;;;17.48;100.00;98121.78;15271952;19;20039;-75
2023/06/30 13:14:07;;;;;;;15.85;11.23;;;;;;;17.46;100.00;98098.56;15274202;19;20015;-77
2023/06/30 13:19:33;;;;;;;13.70;10.88;;;;;;;17.41;100.00;98099.19;15269432;19;20425;-76
2023/06/30 13:25:22;;;;;;;16.45;11.18;;;;;;;17.37;100.00;98097.94;15271868;19;20062;-75
2023/06/30 13:30:47;;;;;;;15.30;11.13;;;;;;;17.30;100.00;98118.91;15270061;19;20022;-76
2023/06/30 13:36:14;;;;;;;15.18;11.82;;;;;;;17.17;100.00;98120.59;15280073;19;20018;-76
2023/06/30 13:41:41;;;;;;;14.35;11.63;;;;;;;17.10;100.00;98147.81;15282669;19;20022;-76
2023/06/30 13:47:07;;;;;;;19.52;14.05;;;;;;;17.06;100.00;98170.22;15282362;19;20433;-75
2023/06/30 13:52:34;;;;;;;25.65;16.05;;;;;;;17.01;100.00;98191.78;15277115;19;20093;-76
2023/06/30 13:58:02;;;;;;;6.78;4.88;;;;;;;16.92;100.00;98177.53;15280825;19;20100;-76
2023/06/30 14:03:28;;;;;;;2.70;2.50;;;;;;;16.82;100.00;98101.75;15287758;19;20018;-76
2023/06/30 14:08:54;;;;;;;3.15;2.80;;;;;;;16.78;100.00;98124.97;15280990;19;20038;-76
2023/06/30 14:14:22;;;;;;;2.50;2.30;;;;;;;16.77;100.00;98131.47;15296956;19;20088;-77
2023/06/30 14:19:50;;;;;;;2.30;2.10;;;;;;;16.69;100.00;98129.81;15288533;19;20118;-75
2023/06/30 14:25:15;;;;;;;3.25;2.63;;;;;;;16.70;100.00;98125.19;15289037;19;20551;-76
2023/06/30 14:30:43;;;;;;;2.83;2.40;;;;;;;16.72;100.00;98114.94;15283317;19;20871;-76
2023/06/30 14:36:08;;;;;;;2.00;1.80;;;;;;;16.76;100.00;98113.47;15289994;19;20018;-76
2023/06/30 14:41:34;;;;;;;1.83;1.70;;;;;;;16.87;100.00;98129.19;15289823;19;20019;-76
2023/06/30 14:47:17;;;;;;;2.47;2.10;;;;;;;17.01;100.00;98131.91;15287468;19;20023;-76
2023/06/30 14:52:42;;;;;;;2.22;1.70;;;;;;;17.10;100.00;98153.28;15293517;19;20656;-76
2023/06/30 14:58:07;;;;;;;1.50;1.40;;;;;;;17.11;100.00;98105.09;15301650;19;20045;-75
2023/06/30 15:03:36;;;;;;;1.40;1.30;;;;;;;17.21;100.00;98083.75;15319337;19;20492;-76
2023/06/30 15:09:01;;;;;;;2.08;1.10;;;;;;;17.30;100.00;98086.25;15319467;19;20037;-78
2023/06/30 15:14:27;;;;;;;1.30;1.20;;;;;;;17.17;100.00;98035.41;15341751;19;20014;-77
2023/06/30 15:19:55;;;;;;;1.20;1.10;;;;;;;17.21;100.00;98034.75;15314663;19;20349;-78
2023/06/30 15:25:26;;;;;;;1.20;1.10;;;;;;;17.20;100.00;98022.19;15279626;19;20426;-78
2023/06/30 15:30:52;;;;;;;1.40;1.15;;;;;;;17.35;100.00;98040.13;15281306;19;20018;-77
2023/06/30 15:36:21;;;;;;;1.30;1.20;;;;;;;17.40;100.00;98015.84;15295533;19;20038;-78
2023/06/30 15:41:45;;;;;;;1.38;0.93;;;;;;;17.47;100.00;98021.25;15295496;19;20039;-78
2023/06/30 15:47:10;;;;;;;1.65;1.20;;;;;;;17.44;100.00;98021.69;15281505;19;20034;-78
2023/06/30 15:52:37;;;;;;;1.27;1.05;;;;;;;17.38;100.00;98004.31;15276563;19;20010;-78
2023/06/30 15:58:02;;;;;;;1.20;1.00;;;;;;;17.31;100.00;98012.50;15268855;19;20030;-78
2023/06/30 16:03:26;;;;;;;1.00;1.00;;;;;;;17.24;100.00;98015.25;15280209;19;20033;-78
2023/06/30 16:08:53;;;;;;;1.98;1.08;;;;;;;17.16;100.00;98020.13;15275013;19;20062;-78
2023/06/30 16:14:18;;;;;;;1.65;1.10;;;;;;;17.19;100.00;98031.41;15283026;19;20098;-83
2023/06/30 16:19:43;;;;;;;1.20;1.10;;;;;;;17.22;100.00;98036.44;15276709;19;20477;-83
2023/06/30 16:25:10;;;;;;;1.35;1.25;;;;;;;17.29;100.00;98047.28;15280834;19;20014;-82
2023/06/30 16:30:36;;;;;;;2.47;1.42;;;;;;;17.30;100.00;98048.13;15273244;19;20911;-81
2023/06/30 16:36:02;;;;;;;2.28;1.70;;;;;;;17.28;100.00;98039.34;15278199;19;20014;-81
2023/06/30 16:41:30;;;;;;;2.40;2.20;;;;;;;17.25;100.00;98035.16;15280264;19;20406;-82
2023/06/30 16:46:57;;;;;;;2.78;2.10;;;;;;;17.21;100.00;98044.78;15273582;19;20006;-81
2023/06/30 16:52:24;;;;;;;2.85;2.20;;;;;;;17.17;100.00;98068.88;15276144;19;20022;-80
2023/06/30 16:57:52;;;;;;;2.38;1.70;;;;;;;17.03;100.00;98061.78;15276106;19;20735;-83
2023/06/30 17:03:20;;;;;;;2.65;1.40;;;;;;;16.76;100.00;98029.13;15281018;19;20465;-83
2023/06/30 17:08:45;;;;;;;2.67;1.67;;;;;;;16.70;100.00;98032.72;15279857;19;20026;-82
2023/06/30 17:14:13;;;;;;;2.47;1.70;;;;;;;16.48;100.00;98050.06;15294116;19;20021;-81
2023/06/30 17:19:37;;;;;;;3.38;1.90;;;;;;;16.39;100.00;98061.38;15307294;19;20036;-80
2023/06/30 17:25:02;;;;;;;2.28;1.40;;;;;;;16.37;100.00;98085.22;15308197;19;20035;-80
2023/06/30 17:30:29;;;;;;;2.95;1.83;;;;;;;16.39;100.00;98094.81;15298624;19;20365;-80
2023/06/30 17:35:54;;;;;;;2.33;1.70;;;;;;;16.44;100.00;98096.91;15296206;19;20025;-80
2023/06/30 17:41:18;;;;;;;4.72;1.70;;;;;;;16.42;100.00;98099.00;15294982;19;20412;-79
2023/06/30 17:46:46;;;;;;;3.83;1.92;;;;;;;16.44;100.00;98107.81;15292978;19;20018;-80
2023/06/30 17:52:11;;;;;;;3.33;1.90;;;;;;;16.42;100.00;98108.00;15295271;19;20091;-79
2023/06/30 17:57:36;;;;;;;3.65;2.28;;;;;;;16.39;100.00;98119.28;15294454;19;20018;-79
2023/06/30 18:03:03;;;;;;;4.30;2.50;;;;;;;16.40;100.00;98147.34;15306218;19;20093;-80
2023/06/30 18:08:29;;;;;;;5.13;2.90;;;;;;;16.38;100.00;98155.69;15299148;19;20022;-79
2023/06/30 18:13:53;;;;;;;5.07;3.03;;;;;;;16.37;100.00;98161.34;15297139;19;20043;-78
2023/06/30 18:19:22;;;;;;;3.90;3.00;;;;;;;16.33;100.00;98172.59;15292307;19;20383;-82
2023/06/30 18:24:46;;;;;;;4.93;3.00;;;;;;;16.28;100.00;98175.13;15304040;19;20536;-82
2023/06/30 18:30:11;;;;;;;5.97;2.97;;;;;;;16.25;100.00;98177.38;15308370;19;20031;-80
2023/06/30 18:35:39;;;;;;;7.20;3.38;;;;;;;16.22;100.00;98180.53;15311704;19;20015;-80
2023/06/30 18:41:04;;;;;;;4.50;3.20;;;;;;;16.16;100.00;98190.34;15305891;19;20065;-79
2023/06/30 18:46:28;;;;;;;5.22;3.80;;;;;;;16.14;100.00;98198.69;15301275;19;20022;-79
2023/06/30 18:51:56;;;;;;;7.55;3.20;;;;;;;16.14;100.00;98197.84;15306777;19;20017;-80
2023/06/30 18:57:22;;;;;;;7.32;3.60;;;;;;;16.12;100.00;98197.22;15305924;19;20019;-79
2023/06/30 19:02:47;;;;;;;7.07;3.10;;;;;;;16.14;100.00;98197.84;15330962;19;20027;-79
2023/06/30 19:08:15;;;;;;;8.13;2.90;;;;;;;16.13;100.00;98196.16;15325114;19;20026;-86
2023/06/30 19:13:40;;;;;;;4.72;2.70;;;;;;;16.12;100.00;98206.19;15272863;19;20025;-86
2023/06/30 19:19:04;;;;;;;6.20;2.67;;;;;;;16.12;100.00;98208.09;15279456;19;20015;-85
2023/06/30 19:24:32;;;;;;;9.40;3.35;;;;;;;16.12;100.00;98216.22;15279294;19;20407;-85
2023/06/30 19:29:57;;;;;;;6.07;3.10;;;;;;;16.12;100.00;98214.34;15254130;19;20022;-85
2023/06/30 19:35:22;;;;;;;10.25;3.25;;;;;;;16.14;100.00;98222.31;15276790;19;20015;-85
2023/06/30 19:40:57;;;;;;;6.10;2.60;;;;;;;16.14;100.00;98225.84;15288117;19;20405;-84
2023/06/30 19:46:24;;;;;;;5.32;2.40;;;;;;;16.17;100.00;98230.03;15290283;19;20023;-85
2023/06/30 19:51:48;;;;;;;10.27;3.22;;;;;;;16.18;100.00;98226.28;15290003;19;20018;-86
2023/06/30 19:57:18;;;;;;;6.68;2.67;;;;;;;16.18;100.00;98229.00;15286795;19;20015;-87
2023/06/30 20:02:44;;;;;;;5.03;2.50;;;;;;;16.18;100.00;98205.41;15286792;19;20035;-81
2023/06/30 20:08:09;;;;;;;5.93;2.28;;;;;;;16.18;100.00;98202.69;15280924;19;20014;-81
2023/06/30 20:13:36;;;;;;;7.82;2.60;;;;;;;16.17;100.00;98202.84;15279254;19;20021;-80
2023/06/30 20:19:01;;;;;;;6.95;3.08;;;;;;;16.11;100.00;98199.06;15274739;19;20502;-81
2023/06/30 20:24:25;;;;;;;8.52;3.13;;;;;;;16.08;100.00;98201.38;15275487;19;20019;-78
2023/06/30 20:29:53;;;;;;;11.90;3.38;;;;;;;16.04;100.00;98210.97;15272258;19;20015;-79
2023/06/30 20:35:19;;;;;;;14.13;3.28;;;;;;;16.01;100.00;98210.34;15280166;19;20017;-79
2023/06/30 20:40:50;;;;;;;20.20;3.60;;;;;;;15.98;100.00;98199.03;15274760;19;20513;-79
2023/06/30 20:46:24;;;;;;;12.90;3.80;;;;;;;15.96;100.00;98196.50;15291682;19;20019;-80
2023/06/30 20:51:51;;;;;;;15.63;3.42;;;;;;;15.95;100.00;98191.28;15301567;19;20019;-79
2023/06/30 20:57:16;;;;;;;18.17;3.75;;;;;;;15.92;100.00;98199.84;15300212;19;20025;-78
2023/06/30 21:02:44;;;;;;;11.13;3.20;;;;;;;15.90;100.00;98191.88;15300123;19;20070;-79
2023/06/30 21:08:08;;;;;;;17.98;4.05;;;;;;;15.86;100.00;98199.63;15298950;19;20042;-79
2023/06/30 21:13:33;;;;;;;14.75;4.18;;;;;;;15.85;100.00;98203.38;15297196;19;20011;-79
2023/06/30 21:19:01;;;;;;;15.45;4.28;;;;;;;15.84;100.00;98209.84;15340612;19;20021;-79
2023/06/30 21:24:26;;;;;;;15.20;4.47;;;;;;;15.81;100.00;98203.94;15349026;19;20026;-78
2023/06/30 21:29:50;;;;;;;11.73;4.38;;;;;;;15.80;100.00;98204.97;15342057;19;20015;-78
2023/06/30 21:35:20;;;;;;;10.48;4.28;;;;;;;15.77;100.00;98199.94;15297645;19;20036;-79
2023/06/30 21:40:51;;;;;;;8.90;4.40;;;;;;;15.74;100.00;98198.47;15292982;19;20024;-80
2023/06/30 21:46:17;;;;;;;11.13;4.35;;;;;;;15.70;100.00;98191.75;15293168;19;20020;-79
2023/06/30 21:51:45;;;;;;;7.53;4.10;;;;;;;15.63;100.00;98185.44;15296369;19;20011;-78
2023/06/30 21:57:10;;;;;;;6.57;3.70;;;;;;;15.57;100.00;98177.06;15294296;19;20006;-79
2023/06/30 22:02:34;;;;;;;7.05;3.42;;;;;;;15.55;100.00;98173.69;15292889;19;20006;-78
2023/06/30 22:08:02;;;;;;;10.70;3.70;;;;;;;15.52;100.00;98170.53;15290180;19;20042;-79
2023/06/30 22:13:26;;;;;;;9.55;3.75;;;;;;;15.52;100.00;98168.66;15287380;19;20017;-78
2023/06/30 22:18:51;;;;;;;9.55;3.50;;;;;;;15.48;100.00;98161.09;15287185;19;20903;-79
2023/06/30 22:24:18;;;;;;;8.65;3.47;;;;;;;15.49;100.00;98165.50;15301642;19;20026;-79
2023/06/30 22:29:43;;;;;;;9.77;3.50;;;;;;;15.48;100.00;98158.41;15297401;19;20573;-80
2023/06/30 22:35:08;;;;;;;11.48;3.28;;;;;;;15.46;100.00;98155.06;15295289;19;20045;-79
2023/06/30 22:40:42;;;;;;;12.10;3.35;;;;;;;15.41;100.00;98133.91;15298518;19;20039;-80
2023/06/30 22:46:08;;;;;;;8.15;3.42;;;;;;;15.37;100.00;98124.53;15302663;19;20014;-79
2023/06/30 22:51:33;;;;;;;5.63;3.00;;;;;;;15.34;100.00;98120.34;15306054;19;20074;-80
2023/06/30 22:57:03;;;;;;;5.85;3.15;;;;;;;15.34;100.00;98133.91;15334840;19;20027;-79
2023/06/30 23:02:27;;;;;;;7.82;3.67;;;;;;;15.34;100.00;98127.63;15322624;19;20006;-81
2023/06/30 23:07:52;;;;;;;8.43;4.65;;;;;;;15.35;100.00;98134.72;15279167;19;20014;-80
2023/06/30 23:13:19;;;;;;;7.82;3.65;;;;;;;15.34;100.00;98131.19;15281701;19;20011;-81
2023/06/30 23:18:45;;;;;;;5.90;3.70;;;;;;;15.35;100.00;98129.31;15287076;19;20024;-82
2023/06/30 23:24:11;;;;;;;8.88;3.60;;;;;;;15.35;100.00;98124.69;15293215;19;20014;-85
2023/06/30 23:29:40;;;;;;;5.32;3.33;;;;;;;15.33;100.00;98115.94;15288955;19;20010;-82
2023/06/30 23:35:05;;;;;;;8.75;3.72;;;;;;;15.30;100.00;98110.91;15293118;19;20029;-85
2023/06/30 23:40:42;;;;;;;6.20;3.10;;;;;;;15.26;100.00;98104.19;15292282;19;20003;-81
2023/06/30 23:46:18;;;;;;;5.45;3.40;;;;;;;15.20;100.00;98099.56;15295114;19;20021;-82
2023/06/30 23:51:42;;;;;;;6.05;3.67;;;;;;;15.15;100.00;98089.31;15298120;19;20011;-81
2023/06/30 23:57:07;;;;;;;9.50;4.47;;;;;;;15.08;100.00;98085.72;15302707;19;20011;-80
